createdAt,value
2023-05-01T00:04:00.812Z,1.90
2023-05-01T00:09:02.996Z,2.00
2023-05-01T00:14:04.641Z,1.90
2023-05-01T00:19:06.488Z,2.07
2023-05-01T00:24:08.015Z,2.00
2023-05-01T00:29:09.953Z,2.17
2023-05-01T00:34:11.966Z,2.13
2023-05-01T00:39:13.575Z,1.70
2023-05-01T00:44:15.314Z,2.10
2023-05-01T00:49:17.706Z,2.00
2023-05-01T00:54:20.211Z,2.37
2023-05-01T00:59:22.413Z,2.30
2023-05-01T01:04:24.104Z,2.00
2023-05-01T01:09:44.969Z,2.30
2023-05-01T01:14:52.416Z,2.43
2023-05-01T01:20:20.689Z,2.20
2023-05-01T01:26:00.255Z,2.10
2023-05-01T01:31:18.204Z,1.93
2023-05-01T01:37:08.699Z,2.23
2023-05-01T01:42:15.461Z,2.00
2023-05-01T01:47:18.031Z,2.10
2023-05-01T01:52:22.285Z,2.03
2023-05-01T01:57:25.202Z,2.23
2023-05-01T02:02:28.210Z,2.13
2023-05-01T02:07:30.784Z,1.87
2023-05-01T02:12:33.812Z,2.10
2023-05-01T02:17:36.806Z,1.67
2023-05-01T02:22:43.157Z,2.03
2023-05-01T02:27:51.540Z,2.10
2023-05-01T02:32:53.494Z,1.47
2023-05-01T02:37:55.387Z,1.97
2023-05-01T02:42:57.519Z,2.00
2023-05-01T02:48:00.025Z,1.93
2023-05-01T02:53:02.243Z,1.77
2023-05-01T02:58:19.156Z,1.90
2023-05-01T03:03:21.241Z,1.90
2023-05-01T03:08:23.006Z,1.97
2023-05-01T03:13:24.905Z,1.80
2023-05-01T03:18:26.749Z,2.00
2023-05-01T03:23:28.946Z,2.00
2023-05-01T03:28:30.548Z,2.00
2023-05-01T03:33:32.278Z,1.80
2023-05-01T03:38:34.340Z,1.70
2023-05-01T03:43:44.876Z,1.80
2023-05-01T03:48:56.764Z,1.83
2023-05-01T03:53:59.965Z,1.73
2023-05-01T03:59:06.451Z,1.80
2023-05-01T04:04:08.246Z,1.90
2023-05-01T04:09:12.330Z,1.83
2023-05-01T04:14:14.144Z,1.90
2023-05-01T04:19:16.489Z,2.07
2023-05-01T04:24:20.581Z,1.90
2023-05-01T04:29:22.283Z,2.20
2023-05-01T04:34:24.017Z,1.90
2023-05-01T04:39:26.507Z,2.00
2023-05-01T04:44:28.752Z,2.03
2023-05-01T04:49:31.070Z,1.83
2023-05-01T04:54:32.890Z,1.80
2023-05-01T04:59:34.659Z,1.90
2023-05-01T05:04:36.892Z,2.00
2023-05-01T05:09:39.281Z,1.80
2023-05-01T05:14:41.868Z,1.60
2023-05-01T05:19:44.611Z,1.73
2023-05-01T05:24:47.046Z,2.10
2023-05-01T05:29:48.654Z,1.90
2023-05-01T05:34:50.229Z,1.87
2023-05-01T05:39:52.658Z,1.87
2023-05-01T05:44:54.855Z,1.73
2023-05-01T05:49:56.911Z,2.00
2023-05-01T05:54:59.112Z,1.83
2023-05-01T06:00:00.855Z,1.70
2023-05-01T06:05:15.025Z,1.87
2023-05-01T06:10:17.089Z,1.80
2023-05-01T06:15:18.823Z,1.80
2023-05-01T06:20:27.301Z,1.70
2023-05-01T06:25:30.187Z,1.87
2023-05-01T06:30:31.983Z,1.80
2023-05-01T06:35:33.695Z,1.73
2023-05-01T06:40:35.411Z,1.43
2023-05-01T06:45:39.833Z,1.53
2023-05-01T06:50:41.446Z,1.60
2023-05-01T06:55:43.550Z,1.50
2023-05-01T07:00:45.808Z,1.70
2023-05-01T07:05:47.666Z,2.03
2023-05-01T07:10:50.098Z,1.83
2023-05-01T07:15:53.800Z,1.50
2023-05-01T07:20:56.322Z,1.90
2023-05-01T07:25:57.964Z,1.70
2023-05-01T07:31:01.540Z,1.80
2023-05-01T07:36:05.897Z,1.60
2023-05-01T07:41:07.685Z,1.60
2023-05-01T07:46:11.691Z,1.50
2023-05-01T07:51:13.531Z,1.40
2023-05-01T07:56:15.949Z,1.67
2023-05-01T08:01:17.576Z,1.40
2023-05-01T08:06:19.309Z,1.53
2023-05-01T08:11:21.190Z,1.70
2023-05-01T08:16:22.914Z,1.70
2023-05-01T08:21:24.592Z,1.53
2023-05-01T08:26:27.755Z,1.27
2023-05-01T08:31:32.285Z,1.03
2023-05-01T08:36:34.436Z,1.30
2023-05-01T08:41:37.694Z,1.50
2023-05-01T08:47:15.991Z,1.20
2023-05-01T08:52:18.604Z,1.43
2023-05-01T08:57:21.005Z,1.63
2023-05-01T09:02:23.487Z,1.37
2023-05-01T09:07:25.505Z,1.20
2023-05-01T09:12:27.607Z,1.37
2023-05-01T09:17:32.631Z,1.37
2023-05-01T09:22:34.855Z,1.20
2023-05-01T09:27:37.922Z,1.47
2023-05-01T09:32:42.562Z,1.20
2023-05-01T09:37:49.546Z,1.30
2023-05-01T09:42:52.672Z,1.20
2023-05-01T09:48:09.681Z,1.10
2023-05-01T09:53:13.105Z,1.23
2023-05-01T09:58:27.269Z,1.30
2023-05-01T10:03:28.946Z,1.30
2023-05-01T10:08:47.396Z,1.20
2023-05-01T10:14:23.894Z,1.20
2023-05-01T10:19:26.030Z,1.30
2023-05-01T10:24:27.649Z,1.53
2023-05-01T10:29:32.791Z,1.30
2023-05-01T10:34:38.478Z,1.17
2023-05-01T10:39:40.159Z,1.30
2023-05-01T10:44:42.517Z,1.23
2023-05-01T10:50:09.857Z,1.30
2023-05-01T10:55:33.091Z,1.20
2023-05-01T11:00:34.984Z,1.53
2023-05-01T11:06:03.081Z,1.53
2023-05-01T11:11:19.630Z,1.13
2023-05-01T11:16:39.443Z,1.33
2023-05-01T11:21:41.977Z,1.40
2023-05-01T11:26:44.747Z,1.40
2023-05-01T11:31:48.904Z,1.40
2023-05-01T11:36:52.437Z,1.03
2023-05-01T11:42:09.567Z,1.20
2023-05-01T11:47:11.358Z,1.40
2023-05-01T11:52:12.944Z,1.10
2023-05-01T11:57:14.589Z,1.17
2023-05-01T12:02:20.431Z,1.17
2023-05-01T12:07:23.049Z,1.10
2023-05-01T12:12:24.700Z,1.63
2023-05-01T12:17:28.348Z,1.50
2023-05-01T12:22:30.350Z,1.33
2023-05-01T12:27:32.977Z,0.90
2023-05-01T12:32:34.923Z,1.10
2023-05-01T12:37:36.974Z,1.10
2023-05-01T12:42:38.598Z,1.43
2023-05-01T12:47:40.411Z,1.30
2023-05-01T12:52:42.237Z,1.02
2023-05-01T12:57:52.915Z,1.33
2023-05-01T13:02:54.564Z,2.05
2023-05-01T13:07:57.194Z,1.35
2023-05-01T13:12:58.899Z,1.55
2023-05-01T13:18:05.464Z,1.13
2023-05-01T13:23:13.726Z,1.00
2023-05-01T13:28:19.694Z,0.85
2023-05-01T13:33:21.589Z,1.10
2023-05-01T13:38:23.764Z,0.93
2023-05-01T13:43:25.716Z,1.08
2023-05-01T13:48:31.572Z,0.95
2023-05-01T13:53:33.153Z,1.10
2023-05-01T13:58:35.306Z,0.88
2023-05-01T14:03:40.928Z,1.10
2023-05-01T14:08:44.423Z,0.80
2023-05-01T14:13:47.717Z,1.20
2023-05-01T14:18:49.339Z,1.23
2023-05-01T14:23:54.557Z,1.17
2023-05-01T14:28:57.154Z,1.10
2023-05-01T14:34:00.711Z,1.17
2023-05-01T14:39:03.872Z,1.03
2023-05-01T14:44:05.995Z,1.13
2023-05-01T14:49:07.733Z,1.10
2023-05-01T14:54:10.089Z,0.97
2023-05-01T14:59:12.496Z,1.10
2023-05-01T15:04:15.333Z,1.20
2023-05-01T15:09:17.114Z,1.40
2023-05-01T15:14:18.760Z,1.60
2023-05-01T15:19:22.069Z,1.33
2023-05-01T15:24:23.702Z,1.37
2023-05-01T15:29:25.240Z,1.57
2023-05-01T15:34:27.043Z,1.70
2023-05-01T15:39:29.366Z,1.47
2023-05-01T15:44:31.909Z,1.70
2023-05-01T15:49:34.135Z,1.53
2023-05-01T15:54:35.872Z,1.60
2023-05-01T15:59:40.283Z,1.70
2023-05-01T16:04:46.450Z,1.73
2023-05-01T16:09:48.102Z,1.63
2023-05-01T16:14:49.861Z,1.63
2023-05-01T16:19:52.702Z,1.80
2023-05-01T16:24:54.622Z,1.80
2023-05-01T16:29:57.244Z,1.70
2023-05-01T16:34:59.297Z,2.30
2023-05-01T16:40:01.315Z,2.03
2023-05-01T16:45:06.464Z,1.70
2023-05-01T16:50:10.023Z,1.87
2023-05-01T16:55:12.008Z,2.03
2023-05-01T17:00:14.822Z,2.10
2023-05-01T17:05:16.692Z,1.97
2023-05-01T17:10:18.309Z,1.90
2023-05-01T17:15:19.940Z,1.60
2023-05-01T17:20:23.165Z,1.30
2023-05-01T17:25:24.874Z,1.70
2023-05-01T17:30:27.123Z,1.60
2023-05-01T17:35:28.755Z,1.67
2023-05-01T17:40:31.296Z,1.80
2023-05-01T17:45:33.068Z,1.50
2023-05-01T17:50:34.849Z,1.70
2023-05-01T17:55:44.539Z,1.57
2023-05-01T18:00:46.708Z,1.60
2023-05-01T18:05:48.554Z,2.10
2023-05-01T18:10:50.492Z,1.90
2023-05-01T18:15:52.365Z,2.07
2023-05-01T18:20:54.867Z,2.30
2023-05-01T18:25:56.775Z,2.53
2023-05-01T18:30:59.590Z,2.43
2023-05-01T18:36:01.368Z,2.70
2023-05-01T18:41:03.242Z,2.20
2023-05-01T18:46:05.495Z,2.70
2023-05-01T18:51:09.273Z,2.50
2023-05-01T18:56:11.537Z,2.93
2023-05-01T19:01:13.392Z,3.00
2023-05-01T19:06:15.263Z,2.50
2023-05-01T19:11:17.064Z,2.20
2023-05-01T19:16:18.909Z,2.77
2023-05-01T19:21:20.761Z,2.93
2023-05-01T19:26:23.427Z,2.90
2023-05-01T19:31:25.446Z,3.30
2023-05-01T19:36:39.651Z,2.87
2023-05-01T19:41:42.163Z,2.93
2023-05-01T19:46:44.641Z,2.70
2023-05-01T19:51:47.003Z,3.13
2023-05-01T19:56:51.644Z,3.80
2023-05-01T20:01:53.652Z,2.90
2023-05-01T20:06:55.647Z,3.00
2023-05-01T20:11:58.057Z,3.10
2023-05-01T20:16:59.791Z,3.20
2023-05-01T20:22:01.932Z,3.70
2023-05-01T20:27:04.451Z,3.80
2023-05-01T20:32:06.064Z,3.50
2023-05-01T20:37:07.702Z,3.00
2023-05-01T20:42:09.298Z,3.60
2023-05-01T20:47:11.715Z,3.47
2023-05-01T20:52:13.372Z,3.17
2023-05-01T20:57:16.464Z,3.37
2023-05-01T21:02:18.033Z,4.00
2023-05-01T21:07:19.672Z,3.53
2023-05-01T21:12:22.069Z,5.73
2023-05-01T21:17:24.003Z,4.77
2023-05-01T21:22:25.875Z,4.63
2023-05-01T21:27:27.763Z,5.20
2023-05-01T21:32:34.406Z,3.80
2023-05-01T21:37:36.679Z,4.30
2023-05-01T21:42:39.804Z,4.57
2023-05-01T21:47:45.037Z,4.73
2023-05-01T21:52:48.741Z,4.30
2023-05-01T21:57:50.357Z,4.70
2023-05-01T22:02:52.083Z,4.80
2023-05-01T22:07:54.274Z,7.70
2023-05-01T22:12:55.972Z,6.53
2023-05-01T22:17:57.610Z,5.63
2023-05-01T22:22:59.258Z,5.00
2023-05-01T22:28:04.251Z,4.63
2023-05-01T22:33:06.144Z,4.43
2023-05-01T22:38:08.501Z,4.60
2023-05-01T22:43:10.518Z,4.33
2023-05-01T22:48:12.409Z,5.00
2023-05-01T22:53:14.034Z,4.63
2023-05-01T22:58:15.728Z,4.80
2023-05-01T23:03:18.113Z,5.63
2023-05-01T23:08:19.775Z,5.30
2023-05-01T23:13:23.549Z,4.90
2023-05-01T23:18:30.708Z,5.43
2023-05-01T23:23:37.698Z,5.93
2023-05-01T23:28:43.181Z,5.97
2023-05-01T23:33:44.718Z,5.93
2023-05-01T23:38:47.508Z,6.30
2023-05-01T23:43:49.086Z,6.20
2023-05-01T23:48:50.764Z,5.73
2023-05-01T23:53:52.293Z,6.17
2023-05-01T23:58:53.913Z,6.77
